| time (UTC) | temp C | wind direction | speed KPH | gust KPH | rain 1hr cm | rain 24hr cm | rain mn cm | humidity % | barometer mb |
| 20260509173026 | 21 | 107 | 0.0 | 11.3 | 0.00 | 0.00 | 0.00 | 41 | 1021.1 |
| 20260509171533 | 20 | 258 | 0.0 | 3.2 | 0.00 | 0.00 | 0.00 | 45 | 1021.2 |
| 20260509170024 | 19 | 178 | 1.6 | 9.7 | 0.00 | 0.00 | 0.00 | 45 | 1021.4 |
| 20260509164525 | 18 | 144 | 3.2 | 6.4 | 0.00 | 0.00 | 0.00 | 46 | 1021.3 |
| 20260509161531 | 17 | 182 | 4.8 | 11.3 | 0.00 | 0.00 | 0.00 | 51 | 1021.6 |
| 20260509160008 | 17 | 184 | 4.8 | 14.5 | 0.00 | 0.00 | 0.00 | 53 | 1021.6 |
| 20260509154510 | 16 | 216 | 4.8 | 16.1 | 0.00 | 0.00 | 0.00 | 56 | 1021.7 |
| 20260509153010 | 16 | 215 | 3.2 | 11.3 | 0.00 | 0.00 | 0.00 | 58 | 1021.6 |
| 20260509151503 | 15 | 80 | 1.6 | 6.4 | 0.00 | 0.00 | 0.00 | 60 | 1021.7 |
| 20260509150010 | 14 | 307 | 0.0 | 9.7 | 0.00 | 0.00 | 0.00 | 62 | 1021.4 |
| 20260509144518 | 13 | 153 | 0.0 | 12.9 | 0.00 | 0.00 | 0.00 | 66 | 1021.3 |
| 20260509143010 | 13 | 149 | 0.0 | 9.7 | 0.00 | 0.00 | 0.00 | 68 | 1021.3 |
| 20260509141507 | 12 | 188 | 1.6 | 9.7 | 0.00 | 0.00 | 0.00 | 69 | 1021.2 |
| 20260509140005 | 12 | 145 | 3.2 | 9.7 | 0.00 | 0.00 | 0.00 | 70 | 1021.1 |
| 20260509134504 | 11 | 155 | 3.2 | 12.9 | 0.00 | 0.00 | 0.00 | 72 | 1020.9 |
| 20260509133011 | 11 | 190 | 3.2 | 9.7 | 0.00 | 0.00 | 0.00 | 74 | 1020.8 |
| 20260509131515 | 10 | 178 | 3.2 | 11.3 | 0.00 | 0.00 | 0.00 | 74 | 1020.7 |
| 20260509130005 | 10 | 114 | 4.8 | 11.3 | 0.00 | 0.00 | 0.00 | 73 | 1020.6 |
| 20260509124507 | 11 | 153 | 4.8 | 11.3 | 0.00 | 0.00 | 0.00 | 73 | 1020.5 |
| 20260509123010 | 11 | 164 | 4.8 | 16.1 | 0.00 | 0.00 | 0.00 | 73 | 1020.5 |
| 20260509121521 | 11 | 182 | 3.2 | 12.9 | 0.00 | 0.00 | 0.00 | 74 | 1020.4 |
| 20260509120017 | 11 | 200 | 4.8 | 11.3 | 0.00 | 0.00 | 0.00 | 71 | 1020.4 |
| 20260509114519 | 11 | 171 | 3.2 | 12.9 | 0.00 | 0.00 | 0.00 | 70 | 1020.3 |
| 20260509113010 | 11 | 136 | 6.4 | 14.5 | 0.00 | 0.00 | 0.00 | 70 | 1020.3 |
| 20260509111513 | 11 | 132 | 4.8 | 14.5 | 0.00 | 0.00 | 0.00 | 71 | 1020.3 |
| 20260509110014 | 11 | 209 | 6.4 | 12.9 | 0.00 | 0.00 | 0.00 | 71 | 1020.3 |
| 20260509104508 | 11 | 171 | 3.2 | 11.3 | 0.00 | 0.00 | 0.00 | 70 | 1020.3 |
| 20260509103012 | 11 | 159 | 6.4 | 16.1 | 0.00 | 0.00 | 0.00 | 71 | 1020.2 |
| 20260509101514 | 11 | 181 | 3.2 | 16.1 | 0.00 | 0.00 | 0.00 | 70 | 1020.0 |
| 20260509100016 | 11 | 153 | 4.8 | 14.5 | 0.00 | 0.00 | 0.00 | 69 | 1020.2 |
| 20260509094524 | 11 | 139 | 0.0 | 9.7 | 0.00 | 0.00 | 0.00 | 66 | 1020.0 |
| 20260509093015 | 12 | 165 | 4.8 | 11.3 | 0.00 | 0.00 | 0.00 | 62 | 1020.1 |
| 20260509091514 | 12 | 92 | 1.6 | 4.8 | 0.00 | 0.00 | 0.00 | 60 | 1019.9 |
| 20260509090044 | 12 | 189 | 6.4 | 16.1 | 0.00 | 0.00 | 0.00 | 62 | 1019.8 |
| 20260509084527 | 13 | 230 | 1.6 | 11.3 | 0.00 | 0.00 | 0.00 | 57 | 1019.6 |
| 20260509083040 | 13 | 155 | 4.8 | 17.7 | 0.00 | 0.00 | 0.00 | 59 | 1019.6 |
| 20260509081528 | 13 | 241 | 1.6 | 8.0 | 0.00 | 0.00 | 0.00 | 57 | 1019.3 |
| 20260509080028 | 12 | 180 | 8.0 | 17.7 | 0.00 | 0.00 | 0.00 | 60 | 1019.3 |
| 20260509074533 | 13 | 184 | 1.6 | 14.5 | 0.00 | 0.00 | 0.00 | 56 | 1019.3 |
| 20260509073025 | 13 | 163 | 9.7 | 16.1 | 0.00 | 0.00 | 0.00 | 55 | 1019.4 |
| 20260509071526 | 14 | 197 | 1.6 | 8.0 | 0.00 | 0.00 | 0.00 | 51 | 1019.1 |
| 20260509070012 | 14 | 204 | 8.0 | 16.1 | 0.00 | 0.00 | 0.00 | 51 | 1018.8 |
| 20260509064506 | 15 | 125 | 6.4 | 16.1 | 0.00 | 0.00 | 0.00 | 46 | 1018.9 |
| 20260509063021 | 14 | 146 | 4.8 | 14.5 | 0.00 | 0.00 | 0.00 | 44 | 1018.8 |
| 20260509061512 | 15 | 180 | 3.2 | 8.0 | 0.00 | 0.00 | 0.00 | 43 | 1018.8 |
| 20260509060015 | 15 | 200 | 1.6 | 6.4 | 0.00 | 0.00 | 0.00 | 41 | 1018.5 |
| 20260509054518 | 15 | 209 | 0.0 | 8.0 | 0.00 | 0.00 | 0.00 | 41 | 1018.4 |
| 20260509053024 | 15 | 208 | 0.0 | 6.4 | 0.00 | 0.00 | 0.00 | 40 | 1018.3 |
| 20260509051513 | 16 | 181 | 0.0 | 6.4 | 0.00 | 0.00 | 0.00 | 39 | 1018.1 |
| 20260509050033 | 16 | 157 | 3.2 | 11.3 | 0.00 | 0.00 | 0.00 | 40 | 1018.0 |
| 20260509044517 | 16 | 241 | 0.0 | 0.0 | 0.00 | 0.00 | 0.00 | 40 | 1017.7 |
| 20260509043032 | 16 | 161 | 0.0 | 4.8 | 0.00 | 0.00 | 0.00 | 40 | 1017.7 |
| 20260509041522 | 17 | 213 | 0.0 | 8.0 | 0.00 | 0.00 | 0.00 | 39 | 1017.5 |
| 20260509034513 | 18 | 195 | 3.2 | 6.4 | 0.00 | 0.00 | 0.00 | 33 | 1016.8 |
| 20260509033029 | 20 | 166 | 0.0 | 6.4 | 0.00 | 0.00 | 0.00 | 25 | 1016.7 |
| 20260509031527 | 20 | 178 | 0.0 | 3.2 | 0.00 | 0.00 | 0.00 | 24 | 1016.3 |
| 20260509030028 | 21 | 24 | 0.0 | 3.2 | 0.00 | 0.00 | 0.00 | 22 | 1016.0 |
| 20260509024518 | 21 | 305 | 0.0 | 4.8 | 0.00 | 0.00 | 0.00 | 23 | 1015.8 |
| 20260509023024 | 22 | 331 | 0.0 | 3.2 | 0.00 | 0.00 | 0.00 | 25 | 1015.6 |
| 20260509021519 | 22 | 316 | 0.0 | 11.3 | 0.00 | 0.00 | 0.00 | 30 | 1015.4 |
| 20260509020022 | 22 | 332 | 0.0 | 16.1 | 0.00 | 0.00 | 0.00 | 32 | 1015.3 |
| 20260509014527 | 22 | 171 | 3.2 | 17.7 | 0.00 | 0.00 | 0.00 | 30 | 1014.8 |
| 20260509013028 | 23 | 182 | 4.8 | 24.1 | 0.00 | 0.00 | 0.00 | 29 | 1014.7 |
| 20260509011524 | 23 | 213 | 6.4 | 20.9 | 0.00 | 0.00 | 0.00 | 28 | 1014.7 |
| 20260509010013 | 23 | 211 | 6.4 | 27.4 | 0.00 | 0.00 | 0.00 | 27 | 1014.7 |
| 20260509004505 | 24 | 352 | 6.4 | 24.1 | 0.00 | 0.00 | 0.00 | 26 | 1014.5 |
| 20260509003004 | 24 | 199 | 4.8 | 14.5 | 0.00 | 0.00 | 0.00 | 24 | 1014.4 |
| 20260509001504 | 24 | 169 | 11.3 | 25.7 | 0.00 | 0.00 | 0.00 | 24 | 1014.3 |
| 20260509000006 | 24 | 195 | 14.5 | 33.8 | 0.00 | 0.00 | 0.00 | 24 | 1014.3 |
| 20260508234507 | 24 | 164 | 11.3 | 30.6 | 0.00 | 0.00 | 0.00 | 24 | 1014.3 |
| 20260508231508 | 24 | 191 | 14.5 | 25.7 | 0.00 | 0.00 | 0.00 | 21 | 1014.6 |
| 20260508230005 | 25 | 167 | 6.4 | 17.7 | 0.00 | 0.00 | 0.00 | 22 | 1014.7 |
| 20260508224520 | 25 | 134 | 3.2 | 17.7 | 0.00 | 0.00 | 0.00 | 23 | 1014.7 |
| 20260508223011 | 24 | 186 | 3.2 | 17.7 | 0.00 | 0.00 | 0.00 | 22 | 1014.7 |
| 20260508221516 | 24 | 239 | 3.2 | 16.1 | 0.00 | 0.00 | 0.00 | 24 | 1014.8 |
| 20260508220009 | 24 | 189 | 9.7 | 27.4 | 0.00 | 0.00 | 0.00 | 22 | 1014.7 |
| 20260508213007 | 23 | 220 | 6.4 | 29.0 | 0.00 | 0.00 | 0.00 | 24 | 1015.0 |
| 20260508211523 | 23 | 350 | 6.4 | 19.3 | 0.00 | 0.00 | 0.00 | 24 | 1015.0 |
| 20260508210017 | 23 | 333 | 8.0 | 22.5 | 0.00 | 0.00 | 0.00 | 25 | 1015.0 |
| 20260508204522 | 22 | 261 | 4.8 | 22.5 | 0.00 | 0.00 | 0.00 | 29 | 1015.1 |
| 20260508203007 | 21 | 303 | 3.2 | 30.6 | 0.00 | 0.00 | 0.00 | 28 | 1015.0 |
| 20260508201515 | 21 | 178 | 6.4 | 19.3 | 0.00 | 0.00 | 0.00 | 26 | 1015.0 |
| 20260508200017 | 22 | 18 | 8.0 | 22.5 | 0.00 | 0.00 | 0.00 | 25 | 1015.1 |
| 20260508194520 | 22 | 65 | 9.7 | 25.7 | 0.00 | 0.00 | 0.00 | 24 | 1015.0 |
| 20260508193025 | 22 | 149 | 4.8 | 24.1 | 0.00 | 0.00 | 0.00 | 28 | 1014.9 |
| 20260508191508 | 22 | 149 | 1.6 | 20.9 | 0.00 | 0.00 | 0.00 | 29 | 1014.9 |
| 20260508190017 | 22 | 159 | 4.8 | 17.7 | 0.00 | 0.00 | 0.00 | 31 | 1015.1 |
| 20260508184513 | 22 | 205 | 3.2 | 12.9 | 0.00 | 0.00 | 0.00 | 35 | 1015.3 |
| 20260508183020 | 21 | 123 | 8.0 | 22.5 | 0.00 | 0.00 | 0.00 | 31 | 1015.4 |
| 20260508181524 | 21 | 192 | 9.7 | 19.3 | 0.00 | 0.00 | 0.00 | 35 | 1015.4 |
| 20260508180007 | 19 | 270 | 6.4 | 19.3 | 0.00 | 0.00 | 0.00 | 43 | 1015.5 |
| 20260508174514 | 18 | 150 | 6.4 | 19.3 | 0.00 | 0.00 | 0.00 | 47 | 1015.8 |